createdAt,value
2019-03-20T00:02:10.643Z,3.20
2019-03-20T00:04:48.979Z,3.30
2019-03-20T00:07:08.833Z,3.30
2019-03-20T00:09:37.072Z,3.20
2019-03-20T00:12:05.323Z,3.20
2019-03-20T00:14:33.548Z,3.20
2019-03-20T00:17:03.935Z,3.20
2019-03-20T00:19:31.736Z,3.20
2019-03-20T00:21:59.980Z,3.20
2019-03-20T00:24:28.190Z,3.20
2019-03-20T00:26:56.437Z,3.20
2019-03-20T00:29:24.694Z,3.20
2019-03-20T00:31:52.907Z,3.20
2019-03-20T00:34:21.169Z,3.10
2019-03-20T00:36:49.411Z,3.10
2019-03-20T00:39:17.722Z,3.10
2019-03-20T00:41:45.952Z,3.10
2019-03-20T00:44:14.182Z,3.10
2019-03-20T00:46:42.437Z,3.00
2019-03-20T00:49:10.665Z,3.00
2019-03-20T00:51:38.908Z,3.00
2019-03-20T00:54:07.134Z,3.00
2019-03-20T00:56:35.369Z,3.00
2019-03-20T00:59:03.629Z,3.00
2019-03-20T01:01:31.853Z,3.00
2019-03-20T01:04:00.117Z,3.00
2019-03-20T01:06:28.336Z,3.00
2019-03-20T01:08:56.564Z,2.90
2019-03-20T01:11:24.809Z,2.90
2019-03-20T01:13:53.040Z,2.80
2019-03-20T01:16:21.288Z,2.80
2019-03-20T01:18:49.498Z,2.70
2019-03-20T01:21:17.750Z,2.60
2019-03-20T01:23:45.977Z,2.70
2019-03-20T01:26:14.220Z,2.60
2019-03-20T01:28:42.456Z,2.60
2019-03-20T01:31:10.691Z,2.60
2019-03-20T01:33:38.937Z,2.60
2019-03-20T01:36:07.184Z,2.60
2019-03-20T01:38:35.420Z,2.60
2019-03-20T01:41:03.669Z,2.50
2019-03-20T01:43:31.894Z,2.50
2019-03-20T01:46:00.139Z,2.50
2019-03-20T01:48:28.382Z,2.50
2019-03-20T01:50:59.876Z,2.40
2019-03-20T01:53:28.093Z,2.40
2019-03-20T01:55:56.328Z,2.30
2019-03-20T01:58:24.541Z,2.40
2019-03-20T02:00:52.789Z,2.40
2019-03-20T02:03:21.015Z,2.30
2019-03-20T02:05:49.226Z,2.30
2019-03-20T02:08:17.475Z,2.30
2019-03-20T02:10:45.730Z,2.30
2019-03-20T02:13:13.958Z,2.20
2019-03-20T02:15:42.199Z,2.20
2019-03-20T02:18:10.451Z,2.30
2019-03-20T02:20:38.672Z,2.30
2019-03-20T02:23:06.917Z,2.10
2019-03-20T02:25:35.133Z,2.10
2019-03-20T02:28:03.380Z,2.10
2019-03-20T02:30:31.611Z,2.10
2019-03-20T02:32:59.851Z,2.10
2019-03-20T02:35:28.091Z,2.00
2019-03-20T02:37:56.331Z,2.00
2019-03-20T02:40:24.569Z,2.00
2019-03-20T02:42:52.809Z,1.90
2019-03-20T02:45:21.033Z,1.90
2019-03-20T02:47:49.258Z,1.90
2019-03-20T02:50:17.487Z,1.90
2019-03-20T02:52:45.703Z,1.90
2019-03-20T02:55:13.964Z,1.80
2019-03-20T02:57:42.180Z,1.70
2019-03-20T03:00:17.686Z,1.70
2019-03-20T03:02:45.970Z,1.70
2019-03-20T03:05:14.576Z,1.70
2019-03-20T03:07:42.824Z,1.70
2019-03-20T03:10:18.334Z,1.70
2019-03-20T03:12:46.589Z,1.60
2019-03-20T03:15:15.544Z,1.70
2019-03-20T03:17:43.761Z,1.70
2019-03-20T03:20:13.149Z,1.60
2019-03-20T03:22:41.383Z,1.60
2019-03-20T03:25:10.468Z,1.50
2019-03-20T03:27:38.704Z,1.60
2019-03-20T03:30:16.079Z,1.50
2019-03-20T03:32:44.522Z,1.50
2019-03-20T03:35:17.094Z,1.50
2019-03-20T03:37:42.681Z,1.50
2019-03-20T03:40:15.131Z,1.40
2019-03-20T03:42:43.368Z,1.50
2019-03-20T03:45:13.218Z,1.40
2019-03-20T03:47:41.486Z,1.40
2019-03-20T03:50:10.159Z,1.30
2019-03-20T03:52:38.452Z,1.30
2019-03-20T03:55:08.573Z,1.30
2019-03-20T03:57:36.844Z,1.30
2019-03-20T04:00:08.344Z,1.30
2019-03-20T04:02:36.572Z,1.30
2019-03-20T04:05:05.384Z,1.30
2019-03-20T04:07:33.623Z,1.20
2019-03-20T04:10:01.878Z,1.20
2019-03-20T04:12:30.112Z,1.10
2019-03-20T04:14:58.341Z,1.10
2019-03-20T04:17:27.140Z,1.10
2019-03-20T04:19:55.377Z,1.10
2019-03-20T04:22:23.613Z,1.10
2019-03-20T04:24:51.931Z,1.00
2019-03-20T04:27:20.155Z,1.00
2019-03-20T04:29:48.407Z,1.00
2019-03-20T04:32:16.628Z,1.00
2019-03-20T04:34:44.878Z,1.00
2019-03-20T04:37:13.086Z,0.90
2019-03-20T04:39:41.325Z,0.90
2019-03-20T04:42:09.538Z,0.90
2019-03-20T04:44:37.798Z,0.90
2019-03-20T04:47:06.062Z,0.80
2019-03-20T04:49:34.292Z,0.90
2019-03-20T04:52:02.514Z,0.90
2019-03-20T04:54:30.740Z,0.90
2019-03-20T04:56:58.986Z,0.80
2019-03-20T04:59:27.211Z,0.80
2019-03-20T05:01:55.465Z,0.80
2019-03-20T05:04:23.684Z,0.80
2019-03-20T05:06:58.759Z,0.80
2019-03-20T05:09:21.871Z,0.70
2019-03-20T05:11:50.131Z,0.70
2019-03-20T05:14:18.373Z,0.60
2019-03-20T05:16:46.623Z,0.60
2019-03-20T05:19:14.859Z,0.60
2019-03-20T05:21:43.094Z,0.50
2019-03-20T05:24:11.326Z,0.60
2019-03-20T05:26:39.579Z,0.60
2019-03-20T05:29:07.791Z,0.60
2019-03-20T05:31:36.020Z,0.60
2019-03-20T05:34:04.270Z,0.60
2019-03-20T05:36:32.513Z,0.60
2019-03-20T05:39:00.742Z,0.50
2019-03-20T05:41:28.999Z,0.50
2019-03-20T05:43:57.212Z,0.40
2019-03-20T05:46:25.440Z,0.50
2019-03-20T05:48:53.689Z,0.50
2019-03-20T05:51:21.945Z,0.50
2019-03-20T05:53:50.168Z,0.50
2019-03-20T05:56:18.424Z,0.50
2019-03-20T05:58:46.650Z,0.50
2019-03-20T06:01:14.877Z,0.50
2019-03-20T06:03:43.117Z,0.40
2019-03-20T06:06:11.336Z,0.50
2019-03-20T06:08:39.582Z,0.50
2019-03-20T06:11:07.816Z,0.50
2019-03-20T06:13:36.067Z,0.60
2019-03-20T06:16:04.294Z,0.60
2019-03-20T06:18:32.514Z,0.60
2019-03-20T06:21:00.750Z,0.60
2019-03-20T06:23:28.992Z,0.60
2019-03-20T06:25:57.226Z,0.70
2019-03-20T06:28:25.446Z,0.80
2019-03-20T06:30:53.694Z,0.90
2019-03-20T06:33:21.918Z,1.00
2019-03-20T06:35:50.173Z,1.10
2019-03-20T06:38:18.401Z,1.20
2019-03-20T06:40:46.649Z,1.30
2019-03-20T06:43:14.882Z,1.30
2019-03-20T06:45:43.139Z,1.40
2019-03-20T06:48:11.376Z,1.50
2019-03-20T06:50:39.609Z,1.50
2019-03-20T06:53:07.847Z,1.60
2019-03-20T06:55:36.072Z,1.70
2019-03-20T06:58:04.313Z,1.80
2019-03-20T07:00:50.408Z,1.90
2019-03-20T07:03:43.936Z,2.00
2019-03-20T07:06:39.086Z,2.20
2019-03-20T07:09:16.408Z,2.30
2019-03-20T07:11:44.626Z,2.50
2019-03-20T07:14:12.885Z,2.60
2019-03-20T07:16:41.129Z,2.80
2019-03-20T07:19:09.381Z,2.90
2019-03-20T07:21:37.624Z,2.90
2019-03-20T07:24:05.850Z,3.10
2019-03-20T07:26:34.108Z,3.20
2019-03-20T07:29:02.333Z,3.30
2019-03-20T07:31:30.551Z,3.40
2019-03-20T07:33:58.799Z,3.60
2019-03-20T07:36:27.059Z,3.80
2019-03-20T07:38:55.319Z,4.00
2019-03-20T07:41:23.540Z,4.10
2019-03-20T07:43:51.780Z,4.20
2019-03-20T07:46:20.089Z,4.30
2019-03-20T07:48:48.432Z,4.40
2019-03-20T07:51:16.651Z,4.50
2019-03-20T07:53:44.900Z,4.60
2019-03-20T07:56:13.161Z,4.80
2019-03-20T07:58:41.421Z,4.90
2019-03-20T08:01:09.681Z,5.00
2019-03-20T08:03:37.919Z,5.20
2019-03-20T08:06:06.163Z,5.30
2019-03-20T08:08:34.403Z,5.50
2019-03-20T08:11:02.636Z,5.50
2019-03-20T08:13:30.862Z,5.60
2019-03-20T08:15:59.086Z,5.70
2019-03-20T08:18:27.342Z,5.90
2019-03-20T08:20:55.546Z,5.90
2019-03-20T08:23:23.814Z,6.10
2019-03-20T08:25:52.044Z,6.30
2019-03-20T08:28:20.289Z,6.50
2019-03-20T08:30:48.528Z,6.60
2019-03-20T08:33:16.785Z,6.80
2019-03-20T08:35:45.018Z,6.90
2019-03-20T08:38:18.103Z,7.10
2019-03-20T08:40:43.228Z,7.20
2019-03-20T08:43:11.473Z,7.40
2019-03-20T08:45:39.696Z,7.60
2019-03-20T08:48:09.930Z,7.70
2019-03-20T08:50:38.529Z,7.90
2019-03-20T08:53:06.772Z,8.00
2019-03-20T08:55:34.996Z,8.10
2019-03-20T08:58:03.260Z,8.30
2019-03-20T09:00:31.484Z,8.40
2019-03-20T09:02:59.749Z,8.80
2019-03-20T09:05:27.978Z,8.90
2019-03-20T09:07:56.223Z,9.10
2019-03-20T09:10:26.648Z,9.30
2019-03-20T09:12:54.882Z,9.30
2019-03-20T09:15:23.136Z,9.30
2019-03-20T09:17:51.346Z,9.40
2019-03-20T09:20:21.621Z,9.60
2019-03-20T09:22:49.855Z,9.80
2019-03-20T09:25:19.048Z,10.10
2019-03-20T09:27:47.275Z,10.30
2019-03-20T09:30:25.335Z,10.50
2019-03-20T09:32:53.556Z,10.60
2019-03-20T09:35:21.823Z,10.80
2019-03-20T09:37:52.409Z,10.90
2019-03-20T09:40:25.029Z,11.00
2019-03-20T09:42:53.261Z,11.20
2019-03-20T09:45:22.326Z,11.40
2019-03-20T09:47:50.568Z,11.70
2019-03-20T09:50:19.878Z,11.80
2019-03-20T09:52:50.004Z,12.00
2019-03-20T09:55:18.082Z,12.20
2019-03-20T09:57:46.358Z,12.30
2019-03-20T10:00:25.383Z,12.40
2019-03-20T10:02:53.685Z,12.50
2019-03-20T10:05:21.991Z,12.60
2019-03-20T10:07:50.324Z,12.70
2019-03-20T10:10:25.943Z,12.80
2019-03-20T10:12:54.165Z,12.90
2019-03-20T10:15:24.992Z,12.90
2019-03-20T10:17:53.259Z,13.10
2019-03-20T10:20:22.022Z,13.20
2019-03-20T10:22:50.258Z,13.10
2019-03-20T10:25:18.676Z,13.30
2019-03-20T10:27:46.921Z,13.30
2019-03-20T10:30:22.187Z,13.60
2019-03-20T10:32:50.430Z,13.60
2019-03-20T10:35:18.716Z,13.70
2019-03-20T10:37:47.002Z,13.70
2019-03-20T10:40:22.223Z,13.80
2019-03-20T10:42:50.467Z,13.90
2019-03-20T10:45:19.345Z,14.10
2019-03-20T10:47:47.580Z,14.40
2019-03-20T10:50:23.140Z,14.60
2019-03-20T10:52:51.377Z,14.60
2019-03-20T10:55:19.676Z,14.70
2019-03-20T10:57:47.938Z,14.70
2019-03-20T11:00:24.388Z,15.00
2019-03-20T11:02:52.710Z,15.20
2019-03-20T11:05:21.026Z,15.60
2019-03-20T11:07:49.253Z,15.70
2019-03-20T11:10:22.767Z,16.00
2019-03-20T11:12:51.056Z,16.60
2019-03-20T11:15:21.174Z,16.60
2019-03-20T11:17:49.605Z,16.90
2019-03-20T11:20:18.676Z,17.20
2019-03-20T11:22:46.919Z,17.60
2019-03-20T11:25:23.330Z,18.00
2019-03-20T11:27:51.542Z,18.40
2019-03-20T11:30:27.723Z,18.80
2019-03-20T11:32:55.247Z,19.20
2019-03-20T11:35:23.468Z,19.30
2019-03-20T11:37:51.727Z,19.40
2019-03-20T11:40:32.081Z,19.80
2019-03-20T11:43:00.332Z,19.90
2019-03-20T11:45:28.566Z,20.40
2019-03-20T11:47:56.784Z,20.40
2019-03-20T11:50:33.907Z,21.00
2019-03-20T11:53:02.123Z,21.40
2019-03-20T11:55:30.363Z,21.20
2019-03-20T11:57:58.631Z,21.90
2019-03-20T12:00:26.866Z,21.90
2019-03-20T12:02:55.090Z,22.20
2019-03-20T12:05:23.362Z,21.80
2019-03-20T12:07:51.596Z,21.20
2019-03-20T12:10:30.910Z,21.60
2019-03-20T12:12:59.155Z,21.80
2019-03-20T12:15:27.371Z,21.40
2019-03-20T12:17:55.634Z,21.70
2019-03-20T12:20:24.402Z,22.60
2019-03-20T12:22:52.683Z,22.30
2019-03-20T12:25:27.100Z,23.00
2019-03-20T12:27:55.320Z,22.70
2019-03-20T12:30:25.493Z,22.50
2019-03-20T12:32:53.817Z,23.50
2019-03-20T12:35:22.995Z,24.00
2019-03-20T12:37:51.277Z,24.70
2019-03-20T12:40:24.335Z,24.70
2019-03-20T12:42:52.624Z,24.40
2019-03-20T12:45:25.787Z,24.80
2019-03-20T12:47:54.025Z,24.90
2019-03-20T12:50:22.257Z,25.00
2019-03-20T12:52:50.508Z,25.10
2019-03-20T12:55:19.603Z,25.20
2019-03-20T12:57:47.849Z,25.30
2019-03-20T13:00:24.095Z,25.30
2019-03-20T13:02:52.338Z,25.20
2019-03-20T13:05:20.633Z,25.30
2019-03-20T13:07:48.870Z,25.60
2019-03-20T13:10:21.632Z,25.60
2019-03-20T13:12:49.932Z,25.60
2019-03-20T13:15:24.671Z,25.20
2019-03-20T13:17:54.181Z,25.10
2019-03-20T13:20:22.405Z,24.90
2019-03-20T13:22:56.701Z,25.40
2019-03-20T13:25:24.928Z,25.60
2019-03-20T13:27:53.157Z,25.50
2019-03-20T13:30:26.991Z,25.50
2019-03-20T13:32:55.213Z,24.80
2019-03-20T13:35:23.445Z,24.60
2019-03-20T13:37:51.690Z,24.80
2019-03-20T13:40:19.926Z,24.50
2019-03-20T13:42:48.169Z,24.90
2019-03-20T13:45:19.240Z,24.80
2019-03-20T13:47:47.461Z,24.90
2019-03-20T13:50:16.010Z,24.90
2019-03-20T13:52:44.272Z,24.90
2019-03-20T13:55:14.523Z,25.10
2019-03-20T13:57:42.783Z,24.90
2019-03-20T14:00:26.656Z,24.70
2019-03-20T14:02:54.884Z,24.80
2019-03-20T14:05:23.181Z,25.10
2019-03-20T14:07:51.449Z,25.20
2019-03-20T14:10:25.736Z,25.20
2019-03-20T14:12:54.192Z,25.50
2019-03-20T14:15:22.437Z,25.60
2019-03-20T14:17:50.665Z,25.00
2019-03-20T14:20:27.361Z,25.40
2019-03-20T14:22:55.604Z,26.00
2019-03-20T14:25:23.856Z,25.90
2019-03-20T14:27:52.511Z,25.80
2019-03-20T14:30:28.544Z,25.60
2019-03-20T14:32:56.104Z,26.00
2019-03-20T14:35:24.398Z,26.00
2019-03-20T14:37:52.641Z,26.00
2019-03-20T14:40:23.105Z,26.20
2019-03-20T14:42:51.377Z,26.30
2019-03-20T14:45:19.687Z,25.60
2019-03-20T14:47:47.950Z,26.30
2019-03-20T14:50:26.477Z,26.30
2019-03-20T14:52:54.742Z,26.40
2019-03-20T14:55:22.961Z,26.40
2019-03-20T14:57:51.196Z,26.60
2019-03-20T15:00:21.189Z,25.90
2019-03-20T15:02:49.430Z,25.70
2019-03-20T15:05:17.698Z,26.00
2019-03-20T15:07:45.916Z,25.70
2019-03-20T15:10:20.293Z,26.00
2019-03-20T15:12:48.610Z,25.60
2019-03-20T15:15:25.945Z,26.00
2019-03-20T15:17:54.166Z,25.70
2019-03-20T15:20:22.422Z,25.50
2019-03-20T15:22:50.666Z,25.50
2019-03-20T15:25:18.886Z,25.10
2019-03-20T15:27:47.150Z,23.80
2019-03-20T15:30:20.706Z,23.00
2019-03-20T15:32:48.968Z,22.40
2019-03-20T15:35:17.192Z,22.10
2019-03-20T15:37:45.438Z,21.90
2019-03-20T15:40:23.867Z,21.90
2019-03-20T15:42:52.115Z,21.60
2019-03-20T15:45:20.379Z,21.70
2019-03-20T15:47:48.630Z,21.50
2019-03-20T15:50:19.276Z,21.40
2019-03-20T15:52:47.498Z,21.40
2019-03-20T15:55:21.828Z,21.80
2019-03-20T15:57:50.058Z,21.20
2019-03-20T16:00:20.563Z,20.50
2019-03-20T16:02:50.668Z,19.90
2019-03-20T16:05:18.931Z,19.70
2019-03-20T16:07:47.154Z,19.60
2019-03-20T16:10:18.022Z,19.50
2019-03-20T16:12:46.254Z,19.20
2019-03-20T16:15:17.018Z,18.70
2019-03-20T16:17:45.338Z,18.50
2019-03-20T16:20:14.208Z,18.30
2019-03-20T16:22:42.471Z,18.10
2019-03-20T16:25:15.281Z,17.60
2019-03-20T16:27:43.578Z,17.30
2019-03-20T16:30:23.186Z,16.90
2019-03-20T16:32:51.412Z,16.90
2019-03-20T16:35:19.682Z,16.90
2019-03-20T16:37:47.913Z,16.90
2019-03-20T16:40:21.558Z,16.70
2019-03-20T16:42:49.876Z,16.60
2019-03-20T16:45:26.769Z,16.60
2019-03-20T16:47:55.018Z,16.50
2019-03-20T16:50:23.264Z,16.40
2019-03-20T16:52:51.488Z,16.10
2019-03-20T16:55:19.744Z,15.90
2019-03-20T16:57:47.967Z,15.70
2019-03-20T17:00:24.197Z,15.60
2019-03-20T17:02:52.446Z,15.40
2019-03-20T17:05:20.702Z,15.30
2019-03-20T17:07:48.948Z,15.10
2019-03-20T17:10:23.292Z,14.90
2019-03-20T17:12:51.532Z,14.80
2019-03-20T17:15:21.708Z,14.60
2019-03-20T17:17:49.969Z,14.50
2019-03-20T17:20:18.200Z,14.40
2019-03-20T17:22:46.439Z,14.20
2019-03-20T17:25:14.657Z,14.10
2019-03-20T17:27:42.907Z,14.00
2019-03-20T17:30:16.903Z,13.90
2019-03-20T17:32:45.170Z,13.70
2019-03-20T17:35:13.896Z,13.50
2019-03-20T17:37:42.132Z,13.30
2019-03-20T17:40:18.199Z,13.30
2019-03-20T17:42:46.474Z,13.20
2019-03-20T17:45:16.653Z,13.10
2019-03-20T17:47:44.888Z,13.00
2019-03-20T17:50:15.950Z,12.90
2019-03-20T17:52:45.253Z,12.70
2019-03-20T17:55:13.608Z,12.60
2019-03-20T17:57:41.861Z,12.50
2019-03-20T18:00:15.876Z,12.40
2019-03-20T18:02:44.121Z,12.20
2019-03-20T18:05:12.360Z,12.00
2019-03-20T18:07:40.606Z,11.90
2019-03-20T18:10:08.865Z,11.90
2019-03-20T18:12:37.085Z,11.80
2019-03-20T18:15:08.477Z,11.70
2019-03-20T18:17:36.698Z,11.50
2019-03-20T18:20:08.340Z,11.50
2019-03-20T18:22:36.561Z,11.50
2019-03-20T18:25:07.353Z,11.40
2019-03-20T18:27:50.295Z,11.30
2019-03-20T18:30:30.184Z,11.30
2019-03-20T18:32:58.400Z,11.30
2019-03-20T18:35:26.633Z,11.20
2019-03-20T18:37:54.880Z,11.10
2019-03-20T18:40:25.352Z,11.00
2019-03-20T18:42:53.659Z,11.00
2019-03-20T18:45:25.461Z,11.00
2019-03-20T18:47:53.728Z,11.00
2019-03-20T18:50:22.715Z,11.00
2019-03-20T18:52:51.210Z,11.00
2019-03-20T18:55:19.897Z,11.00
2019-03-20T18:57:48.293Z,11.00
2019-03-20T19:00:32.443Z,11.00
2019-03-20T19:03:09.511Z,10.90
2019-03-20T19:05:46.662Z,10.90
2019-03-20T19:08:14.998Z,10.80
2019-03-20T19:10:43.329Z,10.80
2019-03-20T19:13:11.631Z,10.70
2019-03-20T19:15:39.870Z,10.60
2019-03-20T19:18:08.100Z,10.50
2019-03-20T19:20:36.422Z,10.40
2019-03-20T19:23:04.817Z,10.30
2019-03-20T19:25:33.078Z,10.40
2019-03-20T19:28:01.329Z,10.30
2019-03-20T19:30:29.561Z,10.20
2019-03-20T19:32:57.809Z,10.20
2019-03-20T19:35:26.045Z,10.10
2019-03-20T19:37:54.301Z,10.00
2019-03-20T19:40:22.830Z,10.00
2019-03-20T19:42:51.072Z,9.90
2019-03-20T19:45:19.371Z,9.90
2019-03-20T19:47:47.603Z,9.90
2019-03-20T19:50:17.095Z,9.80
2019-03-20T19:52:45.316Z,9.80
2019-03-20T19:55:17.160Z,9.70
2019-03-20T19:57:45.457Z,9.60
2019-03-20T20:00:15.900Z,9.50
2019-03-20T20:02:44.141Z,9.40
2019-03-20T20:05:16.003Z,9.40
2019-03-20T20:07:43.056Z,9.30
2019-03-20T20:10:13.899Z,9.30
2019-03-20T20:12:42.129Z,9.30
2019-03-20T20:15:24.168Z,9.30
2019-03-20T20:17:52.427Z,9.20
2019-03-20T20:20:34.304Z,9.20
2019-03-20T20:23:04.369Z,9.00
2019-03-20T20:25:32.501Z,9.00
2019-03-20T20:28:00.765Z,8.90
2019-03-20T20:30:29.000Z,8.90
2019-03-20T20:32:57.226Z,8.80
2019-03-20T20:35:25.462Z,8.80
2019-03-20T20:37:53.722Z,8.60
2019-03-20T20:40:27.361Z,8.70
2019-03-20T20:42:55.571Z,8.60
2019-03-20T20:45:23.824Z,8.50
2019-03-20T20:47:52.061Z,8.50
2019-03-20T20:50:20.299Z,8.40
2019-03-20T20:52:48.538Z,8.40
2019-03-20T20:55:23.456Z,8.20
2019-03-20T20:57:52.194Z,8.20
2019-03-20T21:00:27.210Z,8.10
2019-03-20T21:02:55.437Z,8.10
2019-03-20T21:05:23.701Z,8.00
2019-03-20T21:07:51.948Z,7.80
2019-03-20T21:10:24.114Z,7.80
2019-03-20T21:12:56.624Z,7.90
2019-03-20T21:15:36.924Z,7.80
2019-03-20T21:18:20.562Z,7.80
2019-03-20T21:20:48.982Z,7.80
2019-03-20T21:23:38.265Z,7.80
2019-03-20T21:26:19.003Z,7.80
2019-03-20T21:29:24.066Z,7.70
2019-03-20T21:32:13.426Z,7.60
2019-03-20T21:35:03.122Z,7.50
2019-03-20T21:37:51.264Z,7.40
2019-03-20T21:40:19.569Z,7.30
2019-03-20T21:43:22.591Z,7.20
2019-03-20T21:45:59.688Z,7.10
2019-03-20T21:48:27.953Z,7.10
2019-03-20T21:50:59.436Z,7.00
2019-03-20T21:53:39.876Z,7.10
2019-03-20T21:56:37.130Z,7.10
2019-03-20T21:59:35.604Z,7.00
2019-03-20T22:02:15.977Z,6.80
2019-03-20T22:04:44.210Z,6.70
2019-03-20T22:07:12.473Z,6.70
2019-03-20T22:09:56.342Z,6.70
2019-03-20T22:12:30.602Z,6.60
2019-03-20T22:15:29.885Z,6.50
2019-03-20T22:18:13.227Z,6.40
2019-03-20T22:20:56.245Z,6.30
2019-03-20T22:23:36.507Z,6.30
2019-03-20T22:26:24.905Z,6.20
2019-03-20T22:29:20.404Z,6.10
2019-03-20T22:32:10.206Z,6.10
2019-03-20T22:34:56.032Z,6.10
2019-03-20T22:37:24.271Z,6.00
2019-03-20T22:40:14.065Z,6.00
2019-03-20T22:42:51.638Z,5.90
2019-03-20T22:45:39.813Z,5.80
2019-03-20T22:48:46.097Z,5.70
2019-03-20T22:51:37.022Z,5.70
2019-03-20T22:54:22.892Z,5.70
2019-03-20T22:57:06.415Z,5.60
2019-03-20T22:59:34.675Z,5.60
2019-03-20T23:02:24.436Z,5.50
2019-03-20T23:04:55.761Z,5.50
2019-03-20T23:07:24.012Z,5.40
2019-03-20T23:09:52.250Z,5.40
2019-03-20T23:12:20.654Z,5.40
2019-03-20T23:14:48.961Z,5.40
2019-03-20T23:17:17.192Z,5.30
2019-03-20T23:19:46.190Z,5.30
2019-03-20T23:22:14.410Z,5.30
2019-03-20T23:24:43.301Z,5.20
2019-03-20T23:27:14.792Z,5.20
2019-03-20T23:29:43.016Z,5.10
2019-03-20T23:32:11.332Z,5.00
2019-03-20T23:34:39.604Z,5.00
2019-03-20T23:37:07.843Z,5.00
2019-03-20T23:39:36.096Z,4.90
2019-03-20T23:42:04.695Z,5.00
2019-03-20T23:44:32.916Z,5.00
2019-03-20T23:47:01.177Z,5.00
2019-03-20T23:49:29.411Z,5.00
2019-03-20T23:51:57.661Z,5.00
2019-03-20T23:54:32.523Z,5.10
2019-03-20T23:57:00.913Z,4.90
2019-03-20T23:59:29.136Z,4.90
